Terminal Aerodrome Forecast
Issued by NWS Cleveland, OH

Home | Current Version | Previous Version | Graphics & Text | Print | Product List | Glossary On
Versions: 1 2 3 4 5 6 7 8 9 10 11 12 13 14 15 16 17 18 19 20 21 22 23 24 25 26 27
000
FTUS41 KCLE 221311 AAC
TAFCLE
TAF AMD
KCLE 221311Z 2213/2318 23006KT 3SM -SHRA BR BKN012 OVC035
      TEMPO 2213/2214 2SM -SHRA BKN006
     FM221500 20007KT P6SM VCSH OVC035
     FM221900 22007KT P6SM VCTS SCT035CB BKN050
     FM222100 26009KT P6SM SCT030 BKN050
     FM231100 22005KT P6SM BKN015 BKN035
     FM231400 24007KT P6SM BKN035 BKN050=

USA.gov is the U.S. government's official web portal to all federal, state and local government web resources and services.